All City Stadium (Denver), Colorado
Current Conditions -  °F | °C
As of 9:53 AM on Tuesday 21 Oct 2014 (Local Time) from KAPA Reporting Station
Scattered Clouds Scattered Clouds  
Wind Chill: 65°   Ceiling: Unl
Heat Index: 65°   Visibility: 10mi
Dew Point: 37°   Wind: 10mph
Humidity: 36%   Direction: 190°S
Pressure: 30.06"   Gusts: NA
Location:  39.69109°N, 104.9663°W
Report Text: KAPA 211553Z 19009KT 10SM FEW150 SCT220 18/03 A3006 RMK AO2 SLP128 T01830028
Loading
Personal Weather Stations






























Interactive Weather Map
Tropical Storm Tracking
New forecast layout! Learn more

10-Day Weather Forecast

Advertisements
Track Severe Weather on mobile